Snöberget

Logg

Tid Temp Wetbulb Rel Lf (%) Vind Vindriktning Lufttryck (bar) Spänning
2014-03-31 00:02 3.3 1.6 73.0 1.1 10 13.2
2014-03-31 00:12 3.1 1.4 73.0 1.9 15 13.2
2014-03-31 00:22 2.7 1.1 74.0 1.1 25 13.2
2014-03-31 00:32 2.2 0.7 75.0 1.9 60 13.2
2014-03-31 00:42 1.8 0.3 76.0 1.1 40 13.2
2014-03-31 00:52 1.5 0.1 76.0 1.9 45 13.2
2014-03-31 01:02 1.2 -0.2 76.0 1.9 60 13.2
2014-03-31 01:12 0.9 -0.4 77.0 1.9 65 13.2
2014-03-31 01:22 0.9 -0.4 77.0 1.9 65 13.2
2014-03-31 01:32 0.8 -0.5 77.0 1.1 70 13.2
2014-03-31 01:42 0.8 -0.5 77.0 1.9 70 13.2
2014-03-31 01:53 0.9 -0.4 77.0 1.9 75 13.2
2014-03-31 02:03 1.1 -0.3 76.0 1.9 75 13.2
2014-03-31 02:13 1.2 -0.2 76.0 1.9 70 13.2
2014-03-31 02:23 1.2 -0.2 76.0 1.9 60 13.2
2014-03-31 02:33 1.1 -0.4 75.0 1.9 65 13.2
2014-03-31 02:43 1.1 -0.4 75.0 1.9 65 13.2
2014-03-31 02:53 1.0 -0.5 75.0 1.1 50 13.2
2014-03-31 03:04 0.9 -0.6 75.0 1.1 50 13.2
2014-03-31 03:14 0.9 -0.6 75.0 1.1 25 13.2
2014-03-31 03:24 0.9 -0.5 76.0 1.1 35 13.2
2014-03-31 03:35 0.8 -0.6 76.0 1.1 55 13.2
2014-03-31 03:45 0.7 -0.7 76.0 1.1 30 13.2
2014-03-31 03:55 0.7 -0.7 76.0 1.1 20 13.2
2014-03-31 04:05 0.7 -0.7 76.0 1.9 35 13.2
2014-03-31 04:15 0.6 -0.8 76.0 1.1 30 13.2
2014-03-31 04:25 0.5 -0.9 76.0 1.1 20 13.2
2014-03-31 04:35 0.5 -0.9 76.0 1.1 25 13.2
2014-03-31 04:45 0.4 -1.0 76.0 1.1 35 13.2
2014-03-31 04:55 0.4 -1.0 76.0 1.1 25 13.2
2014-03-31 05:05 0.3 -1.1 76.0 1.1 25 13.2
2014-03-31 05:15 0.3 -1.1 76.0 1.1 355 13.2
2014-03-31 05:25 0.2 -1.2 76.0 1.1 5 13.2
2014-03-31 05:35 0.0 -1.4 76.0 1.1 25 13.2
2014-03-31 05:45 -0.1 -1.4 77.0 1.1 30 13.2
2014-03-31 05:56 -0.3 -1.6 77.0 1.1 50 13.2
2014-03-31 06:06 -0.4 -1.7 77.0 1.1 25 13.2
2014-03-31 06:16 -0.5 -1.7 78.0 1.1 30 13.2
2014-03-31 06:26 -0.4 -1.6 78.0 0.0 25 13.2
2014-03-31 06:36 -0.4 -1.6 78.0 1.1 350 13.2
2014-03-31 06:46 -0.4 -1.6 78.0 0.0 5 13.2
2014-03-31 06:56 -0.4 -1.6 78.0 1.1 10 13.2
2014-03-31 07:06 -0.5 -1.7 79.0 1.1 355 13.2
2014-03-31 07:16 -0.6 -1.8 79.0 1.1 350 13.2
2014-03-31 07:26 -0.6 -1.8 79.0 1.1 5 13.2
2014-03-31 07:36 -0.7 -1.9 79.0 1.1 0 13.2
2014-03-31 07:46 -0.7 -1.9 79.0 1.1 350 13.2
2014-03-31 07:56 -0.7 -1.9 79.0 1.1 355 13.2
2014-03-31 08:06 -0.7 -1.9 79.0 1.1 355 13.2
2014-03-31 08:17 -0.6 -1.8 79.0 1.1 355 13.2
2014-03-31 08:27 -0.5 -1.7 79.0 1.1 350 13.2
2014-03-31 08:37 -0.4 -1.6 79.0 1.1 355 13.2
2014-03-31 08:47 -0.2 -1.4 79.0 1.9 355 13.2
2014-03-31 08:57 0.0 -1.2 79.0 1.1 355 13.2
2014-03-31 09:07 0.0 -1.2 79.0 1.1 15 13.2
2014-03-31 09:17 0.0 -1.2 78.0 1.1 10 13.2
2014-03-31 09:27 0.3 -1.0 78.0 1.1 10 13.2
2014-03-31 09:37 0.6 -0.7 77.0 1.1 30 13.2
2014-03-31 09:47 0.8 -0.6 76.0 1.1 30 13.2
2014-03-31 09:57 0.6 -0.8 76.0 1.1 10 13.2
2014-03-31 10:07 0.7 -0.8 75.0 1.9 15 13.2
2014-03-31 10:17 0.9 -0.6 74.0 1.9 25 13.2
2014-03-31 10:27 1.0 -0.5 74.0 1.1 30 13.2
2014-03-31 10:38 1.4 -0.2 73.0 1.9 15 13.2
2014-03-31 10:48 1.6 -0.1 72.0 1.9 10 13.2
2014-03-31 10:58 2.4 0.7 72.0 1.1 350 13.2
2014-03-31 11:08 3.2 1.3 71.0 1.9 10 13.2
2014-03-31 11:18 3.1 1.2 70.0 1.9 10 13.2
2014-03-31 11:28 3.2 1.2 69.0 1.9 25 13.2
2014-03-31 11:38 3.4 1.4 69.0 1.9 350 13.2
2014-03-31 11:48 4.0 1.9 68.0 1.9 15 13.2
2014-03-31 11:58 4.2 2.0 67.0 1.9 355 13.2
2014-03-31 12:08 4.2 1.9 66.0 1.9 15 13.2
2014-03-31 12:18 5.0 2.6 65.0 1.1 40 13.2
2014-03-31 12:28 5.4 2.9 64.0 1.9 15 13.2
2014-03-31 12:38 4.7 2.2 64.0 1.9 30 13.2
2014-03-31 12:48 5.6 3.0 63.0 1.9 30 13.2
2014-03-31 12:59 6.0 3.2 62.0 1.9 5 13.2
2014-03-31 13:09 6.0 3.2 62.0 1.1 30 13.2
2014-03-31 13:19 6.9 4.0 61.0 1.9 10 13.2
2014-03-31 13:29 7.0 4.0 60.0 1.1 355 13.2
2014-03-31 13:39 7.0 4.0 60.0 1.1 340 13.2
2014-03-31 13:49 5.9 3.0 60.0 1.1 355 13.2
2014-03-31 13:59 5.1 2.4 61.0 1.1 15 13.2
2014-03-31 14:09 4.8 2.0 60.0 1.9 35 13.2
2014-03-31 14:19 4.6 1.9 61.0 1.9 15 13.2
2014-03-31 14:29 4.6 1.9 61.0 1.1 0 13.2
2014-03-31 14:39 5.1 2.4 61.0 1.1 5 13.2
2014-03-31 14:49 5.6 2.7 60.0 1.1 310 13.2
2014-03-31 14:59 6.6 3.5 59.0 1.1 305 13.2
2014-03-31 15:09 6.4 3.4 59.0 1.1 310 13.2
2014-03-31 15:20 5.9 2.9 59.0 1.1 330 13.2
2014-03-31 15:30 5.7 2.7 59.0 1.1 310 13.2
2014-03-31 15:40 5.6 2.6 59.0 1.1 305 13.2
2014-03-31 15:50 5.3 2.4 59.0 1.1 5 13.2
2014-03-31 16:00 5.4 2.5 59.0 1.1 345 13.2
2014-03-31 16:10 5.3 2.3 58.0 1.1 5 13.2
2014-03-31 16:20 5.2 2.3 59.0 0.0 345 13.2
2014-03-31 16:30 5.5 2.5 58.0 1.1 350 13.2
2014-03-31 16:40 6.4 3.2 57.0 1.1 355 13.2
2014-03-31 16:50 6.0 2.8 57.0 1.1 5 13.2
2014-03-31 17:00 5.4 2.3 57.0 1.1 350 13.2
2014-03-31 17:10 5.3 2.2 57.0 1.9 330 13.2
2014-03-31 17:20 5.1 2.1 57.0 1.1 340 13.2
2014-03-31 17:31 5.2 2.2 58.0 1.1 320 13.2
2014-03-31 17:41 5.1 2.1 58.0 1.1 300 13.2
2014-03-31 17:51 5.4 2.4 58.0 1.1 315 13.2
2014-03-31 18:01 5.5 2.5 58.0 1.9 305 13.2
2014-03-31 18:11 5.5 2.5 58.0 1.9 300 13.2
2014-03-31 18:21 5.4 2.4 58.0 1.9 305 13.2
2014-03-31 18:31 5.1 2.2 59.0 1.9 300 13.2
2014-03-31 18:41 4.7 1.9 59.0 1.9 300 13.2
2014-03-31 18:51 4.5 1.7 59.0 1.9 305 13.2
2014-03-31 19:01 4.4 1.7 60.0 1.1 310 13.2
2014-03-31 19:11 4.2 1.5 60.0 1.1 305 13.2
2014-03-31 19:21 4.0 1.4 61.0 0.0 295 13.2
2014-03-31 19:31 3.7 1.2 62.0 0.0 320 13.2
2014-03-31 19:41 3.6 1.1 62.0 0.0 330 13.2
2014-03-31 19:52 3.4 1.0 63.0 1.1 310 13.2
2014-03-31 20:02 3.3 0.9 63.0 1.1 305 13.2
2014-03-31 20:12 3.3 0.9 63.0 1.1 340 13.2
2014-03-31 20:22 3.2 0.8 63.0 1.1 345 13.2
2014-03-31 20:32 3.0 0.7 64.0 1.1 5 13.2
2014-03-31 20:42 2.9 0.7 65.0 1.1 350 13.2
2014-03-31 20:52 2.8 0.6 65.0 0.0 350 13.2
2014-03-31 21:02 2.7 0.5 66.0 0.0 350 13.2
2014-03-31 21:12 2.6 0.5 67.0 0.0 350 13.2
2014-03-31 21:22 2.4 0.3 67.0 0.0 345 13.2
2014-03-31 21:32 2.2 0.2 68.0 0.0 350 13.2
2014-03-31 21:42 2.2 0.2 68.0 0.0 350 13.2
2014-03-31 21:52 2.2 0.2 68.0 0.0 350 13.2
2014-03-31 22:02 2.0 0.0 68.0 0.0 350 13.2
2014-03-31 22:13 1.6 -0.3 68.0 1.1 350 13.2
2014-03-31 22:23 1.5 -0.4 68.0 1.1 345 13.2
2014-03-31 22:33 1.5 -0.4 68.0 1.1 350 13.2
2014-03-31 22:43 1.5 -0.4 69.0 1.1 345 13.2
2014-03-31 22:53 1.5 -0.4 69.0 1.1 355 13.2
2014-03-31 23:03 1.5 -0.4 69.0 1.1 355 13.2
2014-03-31 23:13 1.5 -0.4 69.0 1.1 5 13.2
2014-03-31 23:23 1.6 -0.3 69.0 1.1 15 13.2
2014-03-31 23:33 1.5 -0.3 70.0 1.1 355 13.2
2014-03-31 23:43 1.3 -0.4 71.0 1.1 345 13.2
2014-03-31 23:53 1.2 -0.5 71.0 1.1 10 13.2
2014-04-01 00:03 1.2 -0.5 72.0 1.1 0 13.2
2014-04-01 00:13 1.1 -0.6 72.0 1.1 355 13.2
2014-04-01 00:23 1.0 -0.7 72.0 1.1 350 13.2
2014-04-01 00:34 0.9 -0.7 72.0 1.1 350 13.2
2014-04-01 00:44 0.9 -0.7 73.0 1.1 350 13.2
2014-04-01 00:54 0.8 -0.8 73.0 1.1 345 13.2
2014-04-01 01:04 0.6 -1.0 73.0 1.9 5 13.2
2014-04-01 01:14 0.4 -1.2 73.0 1.9 10 13.2
2014-04-01 01:24 0.2 -1.4 72.0 1.9 5 13.2
2014-04-01 01:34 0.0 -1.6 72.0 1.1 5 13.2
2014-04-01 01:44 -0.1 -1.7 72.0 1.1 5 13.2
2014-04-01 01:54 -0.3 -1.9 72.0 1.9 355 13.2
2014-04-01 02:04 -0.4 -1.9 73.0 1.9 5 13.2
2014-04-01 02:14 -0.6 -2.1 73.0 1.9 355 13.2
2014-04-01 02:24 -0.8 -2.3 73.0 1.9 5 13.2
2014-04-01 02:34 -0.9 -2.4 73.0 1.9 5 13.2
2014-04-01 02:44 -1.0 -2.5 73.0 1.9 5 13.2
2014-04-01 02:55 -1.2 -2.7 73.0 1.9 355 13.2
2014-04-01 03:05 -1.4 -2.8 73.0 1.1 5 13.2
2014-04-01 03:15 -1.6 -3.0 73.0 1.9 355 13.2
2014-04-01 03:25 -1.6 -3.0 73.0 1.9 355 13.2
2014-04-01 03:35 -1.7 -3.1 73.0 1.9 355 13.2
2014-04-01 03:45 -1.7 -3.1 73.0 1.9 10 13.2
2014-04-01 03:55 -1.5 -2.9 73.0 1.9 15 13.2
2014-04-01 04:05 -1.5 -2.9 73.0 1.9 0 13.2
2014-04-01 04:15 -1.6 -3.0 73.0 1.9 5 13.2
2014-04-01 04:25 -1.8 -3.2 73.0 1.1 5 13.2
2014-04-01 04:35 -1.9 -3.3 73.0 1.9 5 13.2
2014-04-01 04:45 -1.9 -3.3 73.0 1.9 10 13.2
2014-04-01 04:55 -2.1 -3.5 73.0 1.9 5 13.2
2014-04-01 05:05 -2.2 -3.6 73.0 1.9 5 13.2
2014-04-01 05:16 -2.3 -3.7 73.0 1.9 15 13.2
2014-04-01 05:26 -2.4 -3.8 73.0 1.9 10 13.2
2014-04-01 05:36 -2.5 -3.9 73.0 1.9 5 13.2
2014-04-01 05:46 -2.6 -4.0 73.0 1.9 10 13.2
2014-04-01 05:56 -2.7 -4.1 73.0 1.1 10 13.2
2014-04-01 06:06 -2.8 -4.1 74.0 1.1 5 13.2
2014-04-01 06:16 -2.9 -4.2 74.0 1.9 5 13.2
2014-04-01 06:26 -2.9 -4.2 74.0 1.9 5 13.2
2014-04-01 06:36 -3.0 -4.3 74.0 1.9 355 13.2
2014-04-01 06:46 -3.0 -4.3 74.0 1.9 355 13.2
2014-04-01 06:56 -2.6 -3.9 74.0 1.9 355 13.2
2014-04-01 07:06 -1.5 -2.9 73.0 1.1 355 13.2
2014-04-01 07:16 -1.7 -3.1 73.0 1.9 355 13.2
2014-04-01 07:26 -2.4 -3.8 73.0 1.9 5 13.2
2014-04-01 07:37 -2.7 -4.0 74.0 1.9 355 13.2
2014-04-01 07:47 -2.7 -4.0 74.0 1.9 355 13.2
2014-04-01 07:57 -2.7 -4.0 74.0 1.1 5 13.2
2014-04-01 08:07 -2.6 -3.9 74.0 1.9 30 13.2
2014-04-01 08:17 -2.5 -3.8 74.0 1.9 25 13.2
2014-04-01 08:27 -2.2 -3.5 74.0 1.9 35 13.2
2014-04-01 08:37 -2.0 -3.4 74.0 1.9 55 13.2
2014-04-01 08:47 -1.8 -3.2 74.0 1.1 60 13.2
2014-04-01 08:57 -1.6 -3.0 74.0 1.9 25 13.2
2014-04-01 09:07 -1.5 -2.9 74.0 1.1 40 13.2
2014-04-01 09:17 -1.4 -2.8 74.0 1.9 35 13.2
2014-04-01 09:27 -1.2 -2.6 74.0 1.1 40 13.2
2014-04-01 09:37 -1.1 -2.5 74.0 1.9 50 13.2
2014-04-01 09:47 -1.0 -2.5 73.0 1.9 55 13.2
2014-04-01 09:57 -0.8 -2.3 73.0 1.1 35 13.2
2014-04-01 10:08 -0.6 -2.1 73.0 1.1 50 13.2
2014-04-01 10:18 -0.5 -2.1 72.0 1.1 45 13.2
2014-04-01 10:28 -0.4 -2.0 72.0 1.1 35 13.2
2014-04-01 10:38 -0.2 -1.8 72.0 1.1 5 13.2
2014-04-01 10:48 -0.2 -1.8 72.0 1.1 20 13.2
2014-04-01 10:58 0.0 -1.6 71.0 1.1 5 13.2
2014-04-01 11:08 0.2 -1.5 71.0 1.1 25 13.2
2014-04-01 11:18 0.6 -1.1 70.0 1.1 345 13.1
2014-04-01 11:28 0.8 -1.0 70.0 1.1 35 13.2
2014-04-01 11:38 0.4 -1.4 69.0 1.9 70 13.2
2014-04-01 11:48 0.6 -1.2 69.0 1.1 35 13.2
2014-04-01 11:58 0.7 -1.2 68.0 1.1 50 13.2
2014-04-01 12:08 0.5 -1.4 68.0 1.1 60 13.2
2014-04-01 12:18 1.1 -0.9 67.0 1.1 60 13.2
2014-04-01 12:29 2.3 0.2 66.0 1.1 80 13.2
2014-04-01 12:39 1.6 -0.5 66.0 1.1 15 13.2
2014-04-01 12:49 1.4 -0.6 66.0 1.1 50 13.2
2014-04-01 12:59 1.3 -0.8 65.0 1.1 65 13.2
2014-04-01 13:09 1.4 -0.7 65.0 0.0 15 13.2
2014-04-01 13:19 1.3 -0.8 65.0 1.1 60 13.2
2014-04-01 13:29 1.0 -1.1 65.0 0.0 65 13.2
2014-04-01 13:39 1.2 -0.9 64.0 1.1 70 13.2
2014-04-01 13:49 1.8 -0.5 63.0 0.0 80 13.2
2014-04-01 13:59 1.9 -0.4 63.0 0.0 80 13.2
2014-04-01 14:09 2.6 0.3 63.0 1.1 340 13.2
2014-04-01 14:19 3.1 0.6 62.0 1.1 305 13.2
2014-04-01 14:29 3.1 0.6 62.0 0.0 345 13.2
2014-04-01 14:40 3.0 0.5 62.0 0.0 320 13.2
2014-04-01 14:50 3.2 0.7 61.0 1.1 290 13.2
2014-04-01 15:00 3.2 0.7 61.0 0.0 20 13.2
2014-04-01 15:10 2.9 0.4 61.0 1.1 40 13.2
2014-04-01 15:20 3.3 0.7 61.0 0.0 350 13.2
2014-04-01 15:30 3.1 0.5 60.0 1.9 75 13.2
2014-04-01 15:40 2.7 0.1 60.0 1.1 35 13.2
2014-04-01 15:50 2.9 0.3 59.0 1.1 15 13.2
2014-04-01 16:00 3.1 0.4 59.0 1.9 285 13.2
2014-04-01 16:10 3.6 0.9 59.0 1.1 330 13.2
2014-04-01 16:20 4.2 1.3 58.0 1.1 320 13.2
2014-04-01 16:30 4.7 1.8 58.0 0.0 160 13.2
2014-04-01 16:40 4.7 1.7 57.0 1.1 305 13.2
2014-04-01 16:50 5.1 2.0 56.0 1.1 10 13.2
2014-04-01 17:01 3.6 0.7 57.0 0.0 310 13.2
2014-04-01 17:11 3.3 0.5 57.0 1.1 285 13.2
2014-04-01 17:21 3.3 0.5 57.0 1.1 290 13.2
2014-04-01 17:31 2.9 0.2 58.0 1.1 10 13.2
2014-04-01 17:41 2.4 -0.3 58.0 1.1 25 13.2
2014-04-01 17:51 2.7 0.0 58.0 0.0 295 13.2
2014-04-01 18:01 2.8 0.0 57.0 0.0 0 13.2
2014-04-01 18:11 2.6 -0.1 58.0 0.0 280 13.2
2014-04-01 18:21 2.7 0.0 58.0 0.0 0 13.2
2014-04-01 18:31 2.5 -0.2 58.0 0.0 0 13.2
2014-04-01 18:41 2.3 -0.3 58.0 0.0 0 13.2
2014-04-01 18:51 2.0 -0.6 58.0 0.0 0 13.2
2014-04-01 19:01 1.6 -0.9 59.0 0.0 0 13.2
2014-04-01 19:11 1.1 -1.3 59.0 0.0 0 13.2
2014-04-01 19:22 0.9 -1.5 59.0 0.0 0 13.2
2014-04-01 19:32 0.8 -1.5 60.0 0.0 0 13.2
2014-04-01 19:42 0.4 -1.9 60.0 0.0 0 13.2
2014-04-01 19:52 0.3 -2.0 60.0 0.0 0 13.2
2014-04-01 20:02 0.2 -2.0 61.0 0.0 280 13.2
2014-04-01 20:12 0.3 -1.9 61.0 1.1 190 13.2
2014-04-01 20:22 0.2 -2.0 61.0 1.1 185 13.2
2014-04-01 20:32 0.1 -2.1 61.0 1.1 185 13.2
2014-04-01 20:42 0.0 -2.2 61.0 1.1 175 13.2
2014-04-01 20:52 0.0 -2.2 61.0 1.1 175 13.2
2014-04-01 21:02 0.0 -2.2 61.0 1.1 190 13.2
2014-04-01 21:12 -0.1 -2.2 62.0 1.1 185 13.2
2014-04-01 21:22 -0.4 -2.5 62.0 1.1 195 13.2
2014-04-01 21:32 -0.5 -2.6 62.0 1.9 190 13.2
2014-04-01 21:43 -0.6 -2.7 62.0 1.9 185 13.2
2014-04-01 21:53 -0.5 -2.6 62.0 1.9 190 13.2
2014-04-01 22:03 -0.6 -2.6 63.0 1.9 185 13.2
2014-04-01 22:13 -0.7 -2.7 63.0 1.9 185 13.2
2014-04-01 22:23 -0.9 -2.9 63.0 1.1 185 13.2
2014-04-01 22:33 -1.0 -2.9 64.0 1.1 190 13.2
2014-04-01 22:43 -1.2 -3.1 64.0 1.1 185 13.2
2014-04-01 22:53 -1.4 -3.3 65.0 1.1 195 13.2
2014-04-01 23:03 -1.4 -3.3 65.0 1.1 200 13.2
2014-04-01 23:13 -1.6 -3.4 65.0 1.1 195 13.2
2014-04-01 23:23 -1.6 -3.4 66.0 1.1 205 13.2
2014-04-01 23:33 -1.6 -3.4 66.0 1.1 200 13.2
2014-04-01 23:43 -1.6 -3.4 66.0 1.1 205 13.2
2014-04-01 23:53 -1.7 -3.4 67.0 1.1 200 13.2